Saturday, September 22, 2018, 3:13 AM EDT
Back to Local

KABE, Lehigh Valley International Airport

Location: Allentown, PA, United States Lat: 40.65
Local Time: 3:13 AM EDT ( 7:13 GMT) Lon: -75.45
Time Zone: US/Eastern Elev: 393 ft

Show me the last for .
Show Decoded

2018-09-22 02:51 METAR KABE 220651Z AUTO 24007KT 10SM SCT035 BKN055 OVC100 23/20 A2998 RMK AO2
                 RAB25E37 SLP149 P0000 T02280200 =
2018-09-22 01:58 METAR KABE 220558Z AUTO 24012G19KT 10SM SCT020 OVC050 24/20 A2997 =
2018-09-22 01:51 METAR KABE 220551Z AUTO 24014KT 10SM BKN020 OVC050 24/20 A2997 RMK AO2 RAB10E22
                 SLP147 P0000 60000 T02390200 10239 20222 55011 =
2018-09-22 00:51 METAR KABE 220451Z 24007KT 10SM OVC016 23/19 A2997 RMK AO2 SLP145 T02330194
                 402330183 =
2018-09-21 23:51 METAR KABE 220351Z 20008KT 10SM OVC018 23/18 A2997 RMK AO2 SLP146 T02280183 =
2018-09-21 22:51 METAR KABE 220251Z 21009KT 10SM OVC018 23/18 A3001 RMK AO2 SLP158 T02280183
                 50001 =
2018-09-21 21:51 METAR KABE 220151Z 20007KT 10SM OVC020 23/18 A3001 RMK AO2 SLP160 T02280183 =
2018-09-21 20:51 METAR KABE 220051Z 22010KT 10SM OVC022 23/18 A3003 RMK AO2 SLP166 T02280178 =
2018-09-21 19:51 METAR KABE 212351Z 21005KT 10SM OVC021 23/18 A3000 RMK AO2 SLP158 T02280178
                 10233 20228 56021 =
2018-09-21 18:51 METAR KABE 212251Z 19007KT 10SM OVC022 23/18 A3002 RMK AO2 SLP163 T02280178 =
2018-09-21 17:51 METAR KABE 212151Z 19006KT 10SM OVC022 23/18 A3005 RMK AO2 SLP172 T02280178 =
2018-09-21 16:51 METAR KABE 212051Z 19008KT 10SM OVC024 23/17 A3007 RMK AO2 SLP179 T02280167
                 56023 =
2018-09-21 15:51 METAR KABE 211951Z AUTO 21009KT 10SM OVC028 23/17 A3009 RMK AO2 SLP188 T02280167
                 =
2018-09-21 15:10 METAR KABE 211910Z 19010KT 10SM OVC032 23/16 A3010 RMK AO2 T02330161 =
2018-09-21 14:56 METAR KABE 211856Z 19010KT 1 3/4SM HZ OVC032 23/16 A3011 RMK AO2 T02330161 =
2018-09-21 14:51 METAR KABE 211851Z 20010KT 10SM OVC034 23/16 A3011 RMK AO2 SLP193 T02330161 =
2018-09-21 13:51 METAR KABE 211751Z 20005KT 10SM FEW027 OVC035 23/17 A3014 RMK AO2 SLP203 60000
                 T02280172 10228 20183 58016 =
2018-09-21 13:34 METAR KABE 211734Z 20005KT 10SM SCT025 OVC035 22/17 A3014 RMK AO2 T02220172 =
2018-09-21 12:51 METAR KABE 211651Z 19005KT 10SM OVC024 22/17 A3016 RMK AO2 SLP212 T02170167 =
2018-09-21 11:51 METAR KABE 211551Z 19007KT 10SM BKN024 OVC034 21/17 A3018 RMK AO2 SLP219
                 T02110167 =
2018-09-21 10:51 METAR KABE 211451Z 15007KT 10SM FEW027 OVC037 21/17 A3020 RMK AO2 RAB21E38
                 SLP226 P0000 60000 T02060172 58015 =
2018-09-21 10:35 METAR KABE 211435Z 16004KT 10SM -RA FEW016 OVC038 20/17 A3022 RMK AO2 RAB21
                 P0000 T02000172 =
2018-09-21 10:25 METAR KABE 211425Z 16005KT 7SM -RA BKN016 BKN031 OVC038 20/17 A3022 RMK AO2
                 RAB21 P0000 T02000167 =
2018-09-21 09:51 METAR KABE 211351Z 00000KT 10SM OVC012 20/17 A3023 RMK AO2 SLP234 T02000167 =
2018-09-21 09:19 METAR KABE 211319Z 17004KT 10SM BKN014 OVC029 19/17 A3023 RMK AO2 T01940167 =
2018-09-21 08:51 METAR KABE 211251Z 17006KT 10SM OVC035 19/17 A3023 RMK AO2 SLP235 T01940167 =
2018-09-21 08:31 METAR KABE 211231Z 14005KT 10SM SCT016 OVC035 19/17 A3024 RMK AO2 T01890167 =
2018-09-21 07:51 METAR KABE 211151Z 13004KT 9SM OVC015 18/17 A3025 RMK AO2 RAE51 SLP241 P0001
                 60001 70001 T01830167 10194 20183 50004 =
2018-09-21 07:43 METAR KABE 211143Z 16003KT 5SM -RA BR OVC015 18/16 A3025 RMK AO2 P0001 T01830161
                 =
2018-09-21 07:34 METAR KABE 211134Z 15004KT 2 1/2SM -RA BR OVC015 18/16 A3025 RMK AO2 P0001
                 T01830161 =
2018-09-21 07:04 METAR KABE 211104Z 15003KT 6SM -RA BR OVC017 18/16 A3025 RMK AO2 P0001 T01830161
                 =
2018-09-21 06:51 METAR KABE 211051Z 17003KT 7SM -RA BKN014 OVC021 19/16 A3025 RMK AO2 RAB23
                 SLP242 P0000 T01890161 =
2018-09-21 05:51 METAR KABE 210951Z 11004KT 10SM BKN017 OVC026 19/16 A3024 RMK AO2 RAB03E20
                 SLP239 P0000 T01890156 =
2018-09-21 04:51 METAR KABE 210851Z 13003KT 10SM OVC028 19/15 A3024 RMK AO2 SLP238 T01940150
                 53000 =
2018-09-21 03:51 METAR KABE 210751Z 12003KT 10SM SCT017 OVC030 19/15 A3023 RMK AO2 SLP234
                 T01940150 =
2018-09-21 03:44 METAR KABE 210744Z 14003KT 10SM SCT017 OVC030 19/15 A3023 RMK AO2 T01940150 =

Support USWX by starting your Amazon purchase here.